createdAt,value
2023-02-09T00:01:26.935Z,67.20
2023-02-09T00:04:50.958Z,67.90
2023-02-09T00:08:15.126Z,68.30
2023-02-09T00:11:58.025Z,69.10
2023-02-09T00:15:22.165Z,69.20
2023-02-09T00:18:48.391Z,69.50
2023-02-09T00:22:12.281Z,70.80
2023-02-09T00:25:36.241Z,70.20
2023-02-09T00:29:01.355Z,70.80
2023-02-09T00:32:25.225Z,71.20
2023-02-09T00:35:49.203Z,71.70
2023-02-09T00:39:13.188Z,71.90
2023-02-09T00:42:37.190Z,72.30
2023-02-09T00:46:03.055Z,72.90
2023-02-09T00:49:27.295Z,72.80
2023-02-09T00:52:50.889Z,73.10
2023-02-09T00:56:15.300Z,73.20
2023-02-09T00:59:40.633Z,73.40
2023-02-09T01:03:07.682Z,73.40
2023-02-09T01:06:31.765Z,73.60
2023-02-09T01:09:56.277Z,74.00
2023-02-09T01:13:20.222Z,73.90
2023-02-09T01:16:44.021Z,72.80
2023-02-09T01:20:11.116Z,70.90
2023-02-09T01:23:34.657Z,67.60
2023-02-09T01:26:58.278Z,66.10
2023-02-09T01:30:22.325Z,62.80
2023-02-09T01:33:46.500Z,60.90
2023-02-09T01:37:11.423Z,62.00
2023-02-09T01:40:35.200Z,60.30
2023-02-09T01:44:01.437Z,59.70
2023-02-09T01:47:27.407Z,58.30
2023-02-09T01:50:55.364Z,57.40
2023-02-09T01:54:24.227Z,56.60
2023-02-09T01:57:57.517Z,56.60
2023-02-09T02:01:23.594Z,56.80
2023-02-09T02:04:47.458Z,56.90
2023-02-09T02:08:17.729Z,56.90
2023-02-09T02:11:46.957Z,56.50
2023-02-09T02:15:11.458Z,56.20
2023-02-09T02:18:51.482Z,56.30
2023-02-09T02:22:45.681Z,56.30
2023-02-09T02:26:43.253Z,56.20
2023-02-09T02:30:35.268Z,56.30
2023-02-09T02:34:09.673Z,56.60
2023-02-09T02:37:50.177Z,56.80
2023-02-09T02:41:23.351Z,56.80
2023-02-09T02:44:53.909Z,57.00
2023-02-09T02:48:27.106Z,56.90
2023-02-09T02:51:57.553Z,57.30
2023-02-09T02:55:25.975Z,57.00
2023-02-09T02:58:52.125Z,56.80
2023-02-09T03:02:19.988Z,57.00
2023-02-09T03:05:44.950Z,56.90
2023-02-09T03:09:11.078Z,56.80
2023-02-09T03:12:42.667Z,56.70
2023-02-09T03:16:21.526Z,56.20
2023-02-09T03:19:52.407Z,56.30
2023-02-09T03:23:27.848Z,56.50
2023-02-09T03:26:59.780Z,56.00
2023-02-09T03:30:24.684Z,55.80
2023-02-09T03:33:48.440Z,55.20
2023-02-09T03:37:12.745Z,55.20
2023-02-09T03:40:36.475Z,55.30
2023-02-09T03:44:19.415Z,55.30
2023-02-09T03:47:43.387Z,55.30
2023-02-09T03:51:07.666Z,55.30
2023-02-09T03:54:32.740Z,55.30
2023-02-09T03:57:56.446Z,55.10
2023-02-09T04:01:21.996Z,55.20
2023-02-09T04:04:46.582Z,55.90
2023-02-09T04:08:10.330Z,55.30
2023-02-09T04:11:35.025Z,55.70
2023-02-09T04:14:59.455Z,55.80
2023-02-09T04:18:24.942Z,56.00
2023-02-09T04:21:49.518Z,57.00
2023-02-09T04:25:23.481Z,57.70
2023-02-09T04:28:47.155Z,58.50
2023-02-09T04:32:11.514Z,58.20
2023-02-09T04:35:36.818Z,58.20
2023-02-09T04:39:00.481Z,58.60
2023-02-09T04:42:24.741Z,59.00
2023-02-09T04:45:49.622Z,58.90
2023-02-09T04:49:13.571Z,57.90
2023-02-09T04:52:38.850Z,58.00
2023-02-09T04:56:02.670Z,57.40
2023-02-09T04:59:40.481Z,57.30
2023-02-09T05:03:04.678Z,57.20
2023-02-09T05:06:28.812Z,57.30
2023-02-09T05:09:53.984Z,57.70
2023-02-09T05:13:18.654Z,57.20
2023-02-09T05:16:42.593Z,57.70
2023-02-09T05:20:07.703Z,57.80
2023-02-09T05:23:31.559Z,57.90
2023-02-09T05:26:57.059Z,58.30
2023-02-09T05:30:22.150Z,58.20
2023-02-09T05:33:46.495Z,58.30
2023-02-09T05:37:10.503Z,58.40
2023-02-09T05:40:36.053Z,59.40
2023-02-09T05:44:01.925Z,59.30
2023-02-09T05:47:26.467Z,59.50
2023-02-09T05:50:50.576Z,59.40
2023-02-09T05:54:14.588Z,59.40
2023-02-09T05:57:39.003Z,59.60
2023-02-09T06:01:05.582Z,59.30
2023-02-09T06:04:29.823Z,59.70
2023-02-09T06:07:55.739Z,60.50
2023-02-09T06:11:20.143Z,59.50
2023-02-09T06:14:44.552Z,59.10
2023-02-09T06:18:10.279Z,59.10
2023-02-09T06:21:34.581Z,59.30
2023-02-09T06:25:00.952Z,58.30
2023-02-09T06:28:25.253Z,58.60
2023-02-09T06:31:49.018Z,58.50
2023-02-09T06:35:19.739Z,58.70
2023-02-09T06:38:43.365Z,58.80
2023-02-09T06:42:07.589Z,59.30
2023-02-09T06:45:31.717Z,59.80
2023-02-09T06:48:56.277Z,60.10
2023-02-09T06:52:22.510Z,60.80
2023-02-09T06:55:46.680Z,60.20
2023-02-09T06:59:10.712Z,60.60
2023-02-09T07:02:37.980Z,61.20
2023-02-09T07:06:06.775Z,61.40
2023-02-09T07:09:32.111Z,62.10
2023-02-09T07:12:59.166Z,62.20
2023-02-09T07:16:23.256Z,61.90
2023-02-09T07:19:48.166Z,62.50
2023-02-09T07:23:12.697Z,62.70
2023-02-09T07:26:38.066Z,62.90
2023-02-09T07:30:07.273Z,62.40
2023-02-09T07:33:32.236Z,61.40
2023-02-09T07:36:57.006Z,61.60
2023-02-09T07:40:24.012Z,61.20
2023-02-09T07:43:49.147Z,60.90
2023-02-09T07:47:14.373Z,59.70
2023-02-09T07:50:38.748Z,60.90
2023-02-09T07:54:02.947Z,61.50
2023-02-09T07:57:28.567Z,61.20
2023-02-09T08:00:54.161Z,58.30
2023-02-09T08:04:18.791Z,58.10
2023-02-09T08:07:42.463Z,57.30
2023-02-09T08:11:06.835Z,54.50
2023-02-09T08:14:35.832Z,50.20
2023-02-09T08:18:02.739Z,48.00
2023-02-09T08:21:29.088Z,44.20
2023-02-09T08:24:53.064Z,42.70
2023-02-09T08:28:31.790Z,42.60
2023-02-09T08:31:58.710Z,44.40
2023-02-09T08:35:23.710Z,44.00
2023-02-09T08:38:48.011Z,43.60
2023-02-09T08:42:11.590Z,43.90
2023-02-09T08:45:36.646Z,43.90
2023-02-09T08:49:00.475Z,44.00
2023-02-09T08:52:25.596Z,44.20
2023-02-09T08:55:50.308Z,45.00
2023-02-09T08:59:14.014Z,44.30
2023-02-09T09:02:37.733Z,44.20
2023-02-09T09:06:03.242Z,43.90
2023-02-09T09:09:28.245Z,43.30
2023-02-09T09:12:52.907Z,42.00
2023-02-09T09:17:17.748Z,41.30
2023-02-09T09:21:20.666Z,41.90
2023-02-09T09:24:47.376Z,41.10
2023-02-09T09:28:11.873Z,40.90
2023-02-09T09:31:37.081Z,40.50
2023-02-09T09:35:02.224Z,40.80
2023-02-09T09:38:25.843Z,40.50
2023-02-09T09:41:55.271Z,39.20
2023-02-09T09:45:23.449Z,38.00
2023-02-09T09:48:50.415Z,37.60
2023-02-09T09:52:19.383Z,39.40
2023-02-09T09:55:43.074Z,39.20
2023-02-09T09:59:17.417Z,40.20
2023-02-09T10:02:40.989Z,39.40
2023-02-09T10:06:14.970Z,38.70
2023-02-09T10:09:42.608Z,38.40
2023-02-09T10:13:14.381Z,38.20
2023-02-09T10:16:39.413Z,39.10
2023-02-09T10:20:05.591Z,40.00
2023-02-09T10:23:38.961Z,40.80
2023-02-09T10:27:07.588Z,40.30
2023-02-09T10:30:31.295Z,41.80
2023-02-09T10:34:03.175Z,42.00
2023-02-09T10:37:30.401Z,41.40
2023-02-09T10:40:54.406Z,41.20
2023-02-09T10:44:23.415Z,43.70
2023-02-09T10:47:58.768Z,45.10
2023-02-09T10:51:29.222Z,44.00
2023-02-09T10:54:56.356Z,42.70
2023-02-09T10:58:26.784Z,42.60
2023-02-09T11:01:57.110Z,43.50
2023-02-09T11:05:30.221Z,44.20
2023-02-09T11:09:00.929Z,44.20
2023-02-09T11:12:28.466Z,44.70
2023-02-09T11:16:20.283Z,44.20
2023-02-09T11:20:04.241Z,45.40
2023-02-09T11:23:49.853Z,44.80
2023-02-09T11:27:29.485Z,44.60
2023-02-09T11:31:20.100Z,45.60
2023-02-09T11:35:00.552Z,46.30
2023-02-09T11:38:45.355Z,46.40
2023-02-09T11:42:31.785Z,46.80
2023-02-09T11:45:59.488Z,47.20
2023-02-09T11:49:26.725Z,47.60
2023-02-09T11:52:54.030Z,47.10
2023-02-09T11:56:20.022Z,47.40
2023-02-09T11:59:49.823Z,47.40
2023-02-09T12:03:15.619Z,47.50
2023-02-09T12:06:44.125Z,48.20
2023-02-09T12:10:19.526Z,48.30
2023-02-09T12:13:57.154Z,48.30
2023-02-09T12:17:25.541Z,49.10
2023-02-09T12:20:55.764Z,49.40
2023-02-09T12:24:33.646Z,48.30
2023-02-09T12:28:18.022Z,48.30
2023-02-09T12:32:25.076Z,48.80
2023-02-09T12:36:02.481Z,48.80
2023-02-09T12:39:29.591Z,48.20
2023-02-09T12:43:28.032Z,48.10
2023-02-09T12:46:54.584Z,48.10
2023-02-09T12:50:36.509Z,48.70
2023-02-09T12:54:01.543Z,48.70
2023-02-09T12:57:58.054Z,48.70
2023-02-09T13:01:24.389Z,48.70
2023-02-09T13:05:08.413Z,48.80
2023-02-09T13:08:37.697Z,49.10
2023-02-09T13:12:11.893Z,49.30
2023-02-09T13:15:49.115Z,49.50
2023-02-09T13:19:21.284Z,49.20
2023-02-09T13:22:58.383Z,49.40
2023-02-09T13:26:24.448Z,49.00
2023-02-09T13:29:54.439Z,48.60
2023-02-09T13:33:29.106Z,48.70
2023-02-09T13:37:00.320Z,48.60
2023-02-09T13:40:26.090Z,48.90
2023-02-09T13:43:50.015Z,48.90
2023-02-09T13:47:16.779Z,49.60
2023-02-09T13:50:48.435Z,49.40
2023-02-09T13:54:20.086Z,49.30
2023-02-09T13:57:45.612Z,49.50
2023-02-09T14:01:13.963Z,48.90
2023-02-09T14:04:40.115Z,49.30
2023-02-09T14:08:04.547Z,49.30
2023-02-09T14:11:41.835Z,48.80
2023-02-09T14:15:24.481Z,48.90
2023-02-09T14:18:53.415Z,48.80
2023-02-09T14:22:30.848Z,49.10
2023-02-09T14:26:04.447Z,48.40
2023-02-09T14:29:30.317Z,48.60
2023-02-09T14:32:55.914Z,47.80
2023-02-09T14:36:23.918Z,48.10
2023-02-09T14:40:00.746Z,48.30
2023-02-09T14:43:27.356Z,48.40
2023-02-09T14:46:53.032Z,48.70
2023-02-09T14:50:18.077Z,48.70
2023-02-09T14:53:44.577Z,48.60
2023-02-09T14:57:13.822Z,48.80
2023-02-09T15:00:37.676Z,49.30
2023-02-09T15:04:01.604Z,48.90
2023-02-09T15:07:32.604Z,48.70
2023-02-09T15:10:59.756Z,48.40
2023-02-09T15:14:26.638Z,48.90
2023-02-09T15:17:50.699Z,49.40
2023-02-09T15:21:14.626Z,48.90
2023-02-09T15:24:38.227Z,49.10
2023-02-09T15:28:08.236Z,49.20
2023-02-09T15:31:38.713Z,50.10
2023-02-09T15:35:04.781Z,49.80
2023-02-09T15:38:29.290Z,49.70
2023-02-09T15:42:10.095Z,49.90
2023-02-09T15:45:50.994Z,50.30
2023-02-09T15:49:16.316Z,50.10
2023-02-09T15:52:40.034Z,50.10
2023-02-09T15:56:03.856Z,50.40
2023-02-09T15:59:27.496Z,50.80
2023-02-09T16:02:52.386Z,50.50
2023-02-09T16:06:19.976Z,50.30
2023-02-09T16:09:44.301Z,51.00
2023-02-09T16:13:10.768Z,50.60
2023-02-09T16:16:34.437Z,51.40
2023-02-09T16:19:58.278Z,51.30
2023-02-09T16:23:24.340Z,51.90
2023-02-09T16:26:47.939Z,51.70
2023-02-09T16:30:16.734Z,52.20
2023-02-09T16:33:41.703Z,52.40
2023-02-09T16:37:05.582Z,53.10
2023-02-09T16:40:32.359Z,53.00
2023-02-09T16:43:55.894Z,53.40
2023-02-09T16:47:22.756Z,53.80
2023-02-09T16:50:52.651Z,54.40
2023-02-09T16:54:16.552Z,54.80
2023-02-09T16:57:41.549Z,55.10
2023-02-09T17:01:12.699Z,55.20
2023-02-09T17:04:37.778Z,55.60
2023-02-09T17:08:05.689Z,55.80
2023-02-09T17:11:30.442Z,56.00
2023-02-09T17:14:55.604Z,56.20
2023-02-09T17:18:22.067Z,56.20
2023-02-09T17:21:45.628Z,56.20
2023-02-09T17:25:15.982Z,55.90
2023-02-09T17:28:40.844Z,55.80
2023-02-09T17:32:06.639Z,55.50
2023-02-09T17:35:57.912Z,55.90
2023-02-09T17:39:18.627Z,56.00
2023-02-09T17:42:42.930Z,55.90
2023-02-09T17:46:07.849Z,56.00
2023-02-09T17:49:34.114Z,56.10
2023-02-09T17:52:57.784Z,56.00
2023-02-09T17:56:21.289Z,56.50
2023-02-09T17:59:46.849Z,56.20
2023-02-09T18:03:15.746Z,55.80
2023-02-09T18:06:41.989Z,55.90
2023-02-09T18:10:06.411Z,55.60
2023-02-09T18:13:30.038Z,55.90
2023-02-09T18:16:55.099Z,55.60
2023-02-09T18:20:20.617Z,55.60
2023-02-09T18:23:45.615Z,55.50
2023-02-09T18:27:10.181Z,55.40
2023-02-09T18:30:35.947Z,54.90
2023-02-09T18:33:59.522Z,54.80
2023-02-09T18:37:23.176Z,54.70
2023-02-09T18:40:48.104Z,54.40
2023-02-09T18:44:11.831Z,54.40
2023-02-09T18:47:37.148Z,54.30
2023-02-09T18:51:00.750Z,54.10
2023-02-09T18:54:24.368Z,54.00
2023-02-09T18:57:49.322Z,54.10
2023-02-09T19:01:13.192Z,54.30
2023-02-09T19:04:36.807Z,54.20
2023-02-09T19:08:00.513Z,54.30
2023-02-09T19:11:24.468Z,54.30
2023-02-09T19:14:49.405Z,54.30
2023-02-09T19:18:12.960Z,54.30
2023-02-09T19:21:36.771Z,54.50
2023-02-09T19:25:00.705Z,54.60
2023-02-09T19:28:24.410Z,54.80
2023-02-09T19:31:49.538Z,54.70
2023-02-09T19:35:13.083Z,54.90
2023-02-09T19:38:37.389Z,55.30
2023-02-09T19:42:02.004Z,55.40
2023-02-09T19:45:30.930Z,55.50
2023-02-09T19:48:55.858Z,55.30
2023-02-09T19:52:19.404Z,55.50
2023-02-09T19:55:48.763Z,55.50
2023-02-09T19:59:13.693Z,56.10
2023-02-09T20:02:37.420Z,56.80
2023-02-09T20:06:05.440Z,57.00
2023-02-09T20:09:28.983Z,57.90
2023-02-09T20:12:52.572Z,58.70
2023-02-09T20:16:22.625Z,59.50
2023-02-09T20:19:46.207Z,60.60
2023-02-09T20:23:11.459Z,61.90
2023-02-09T20:26:35.014Z,63.70
2023-02-09T20:30:01.308Z,66.10
2023-02-09T20:33:25.015Z,68.80
2023-02-09T20:36:50.150Z,71.50
2023-02-09T20:40:15.325Z,72.30
2023-02-09T20:43:57.735Z,73.10
2023-02-09T20:47:21.561Z,73.40
2023-02-09T20:50:46.196Z,73.20
2023-02-09T20:54:10.578Z,73.60
2023-02-09T20:57:39.452Z,73.70
2023-02-09T21:01:03.144Z,73.90
2023-02-09T21:04:30.279Z,74.50
2023-02-09T21:07:54.240Z,75.20
2023-02-09T21:11:19.343Z,75.60
2023-02-09T21:14:46.416Z,75.30
2023-02-09T21:18:10.082Z,75.80
2023-02-09T21:21:33.650Z,76.50
2023-02-09T21:24:57.286Z,75.80
2023-02-09T21:28:20.997Z,76.00
2023-02-09T21:31:46.106Z,76.20
2023-02-09T21:35:10.330Z,76.10
2023-02-09T21:38:36.932Z,76.20
2023-02-09T21:42:19.716Z,75.70
2023-02-09T21:45:43.624Z,75.40
2023-02-09T21:49:09.252Z,75.10
2023-02-09T21:52:34.463Z,75.60
2023-02-09T21:56:00.879Z,75.90
2023-02-09T21:59:24.609Z,76.00
2023-02-09T22:02:53.857Z,76.40
2023-02-09T22:06:18.978Z,77.00
2023-02-09T22:09:43.000Z,77.10
2023-02-09T22:13:08.799Z,77.30
2023-02-09T22:16:33.660Z,77.60
2023-02-09T22:19:57.697Z,78.00
2023-02-09T22:23:22.924Z,78.40
2023-02-09T22:26:47.766Z,78.70
2023-02-09T22:30:12.257Z,78.80
2023-02-09T22:33:36.439Z,79.00
2023-02-09T22:37:00.673Z,79.50
2023-02-09T22:40:28.186Z,80.10
2023-02-09T22:43:56.277Z,80.30
2023-02-09T22:47:20.065Z,80.60
2023-02-09T22:50:43.647Z,80.90
2023-02-09T22:54:10.220Z,81.00
2023-02-09T22:57:36.763Z,81.20
2023-02-09T23:01:00.678Z,81.60
2023-02-09T23:04:24.673Z,81.80
2023-02-09T23:07:48.803Z,81.80
2023-02-09T23:11:14.832Z,82.20
2023-02-09T23:14:40.157Z,82.70
2023-02-09T23:18:04.999Z,83.20
2023-02-09T23:21:30.970Z,83.60
2023-02-09T23:24:54.952Z,83.90
2023-02-09T23:28:19.959Z,84.10
2023-02-09T23:31:49.081Z,84.20
2023-02-09T23:35:14.440Z,84.30
2023-02-09T23:38:39.103Z,84.30
2023-02-09T23:42:02.690Z,84.60
2023-02-09T23:45:29.345Z,85.00
2023-02-09T23:48:58.043Z,84.70
2023-02-09T23:52:26.520Z,84.60
2023-02-09T23:55:52.187Z,84.50
2023-02-09T23:59:17.607Z,84.40
